Terminal Aerodrome Forecast
Issued by NWS

Home | Current Version | Previous Version | Text Only | Print | Product List | Glossary On
Versions: 1 2 3 4 5 6 7 8 9 10 11 12 13 14
000
FTUS42 KMLB 012300
TAFISM
TAF
KISM 012338Z 0200/0224 14010KT P6SM SCT300
     FM020600 17007KT P6SM SCT020 BKN120 WS015/20032KT
     FM021200 18012G20KT P6SM VCTS SCT025CB BKN040
     FM021500 20017G24KT P6SM VCTS SCT015CB BKN030 OVC050
     FM021900 27015G22KT P6SM VCSH BKN030 OVC050
      AMD NOT SKED 0203/0212=

USA.gov is the U.S. government's official web portal to all federal, state and local government web resources and services.